N80471 RJTY-RJTY

Flight info

Callsign N80471
Flight time 0h 24m
Altitude 3000
Route VFR
Aircraft C172/L-V/N

Departure

Time 2026-05-05 05:17
Airport Yokota Air Base (RJTY)

Arrival

Time 2026-05-05 05:41
Airport Yokota Air Base (RJTY)
Time Latitude Longitude Altitude Speed Heading
2026-05-05 05:13 35.73826 139.35769 474 ft 10 kts 238°
2026-05-05 05:13 35.73798 139.35690 474 ft 13 kts 252°
2026-05-05 05:14 35.73777 139.35554 474 ft 17 kts 261°
2026-05-05 05:14 35.73758 139.35422 473 ft 15 kts 260°
2026-05-05 05:14 35.73739 139.35279 467 ft 14 kts 260°
2026-05-05 05:14 35.73728 139.35202 458 ft 0 kts 260°
2026-05-05 05:15 35.73728 139.35199 458 ft 4 kts 259°
2026-05-05 05:15 35.73713 139.35102 449 ft 12 kts 271°
2026-05-05 05:16 35.73737 139.35082 449 ft 0 kts 350°
2026-05-05 05:16 35.73901 139.35048 451 ft 48 kts 350°
2026-05-05 05:17 35.74374 139.34947 476 ft 82 kts 353°
2026-05-05 05:17 35.74958 139.34802 589 ft 91 kts 352°
2026-05-05 05:17 35.75566 139.34627 808 ft 88 kts 347°
2026-05-05 05:17 35.76185 139.34418 1085 ft 93 kts 337°
2026-05-05 05:18 35.76600 139.33861 1282 ft 88 kts 278°
2026-05-05 05:18 35.76622 139.33161 1484 ft 80 kts 252°
2026-05-05 05:18 35.76225 139.32929 1480 ft 75 kts 166°
2026-05-05 05:18 35.75729 139.33126 1518 ft 76 kts 162°
2026-05-05 05:19 35.75202 139.33369 1512 ft 83 kts 158°
2026-05-05 05:19 35.74651 139.33620 1506 ft 89 kts 168°
2026-05-05 05:19 35.74035 139.33782 1551 ft 93 kts 168°
2026-05-05 05:19 35.73386 139.33945 1505 ft 94 kts 171°
2026-05-05 05:20 35.72754 139.34102 1488 ft 86 kts 171°
2026-05-05 05:20 35.72222 139.34229 1473 ft 69 kts 168°
2026-05-05 05:20 35.71748 139.34356 1212 ft 79 kts 161°
2026-05-05 05:20 35.71596 139.34984 991 ft 87 kts 88°
2026-05-05 05:21 35.71917 139.35564 869 ft 93 kts 15°
2026-05-05 05:21 35.72536 139.35338 702 ft 93 kts 343°
2026-05-05 05:21 35.73133 139.35203 535 ft 87 kts 356°
2026-05-05 05:21 35.73690 139.35092 450 ft 68 kts 354°
2026-05-05 05:22 35.74125 139.35004 457 ft 76 kts 350°
2026-05-05 05:22 35.74739 139.34853 520 ft 99 kts 351°
2026-05-05 05:22 35.75419 139.34651 766 ft 98 kts 348°
2026-05-05 05:22 35.76065 139.34429 1110 ft 93 kts 330°
2026-05-05 05:23 35.76423 139.33822 1295 ft 89 kts 264°
2026-05-05 05:23 35.76471 139.33105 1493 ft 84 kts 258°
2026-05-05 05:23 35.76093 139.32790 1443 ft 78 kts 171°
2026-05-05 05:23 35.75592 139.32947 1517 ft 77 kts 166°
2026-05-05 05:24 35.75040 139.33102 1479 ft 88 kts 168°
2026-05-05 05:24 35.74421 139.33271 1456 ft 95 kts 169°
2026-05-05 05:24 35.73787 139.33440 1507 ft 97 kts 168°
2026-05-05 05:24 35.73142 139.33617 1507 ft 93 kts 170°
2026-05-05 05:25 35.72559 139.33750 1499 ft 77 kts 170°
2026-05-05 05:25 35.72059 139.33871 1398 ft 73 kts 168°
2026-05-05 05:25 35.71534 139.34023 1100 ft 79 kts 160°
2026-05-05 05:25 35.71363 139.34673 835 ft 91 kts 85°
2026-05-05 05:26 35.71555 139.35347 823 ft 86 kts 53°
2026-05-05 05:26 35.72138 139.35391 751 ft 83 kts 353°
2026-05-05 05:26 35.72711 139.35290 614 ft 83 kts 355°
2026-05-05 05:26 35.73302 139.35166 502 ft 85 kts 354°
2026-05-05 05:27 35.73811 139.35069 450 ft 61 kts 352°
2026-05-05 05:27 35.74308 139.34969 466 ft 89 kts 358°
2026-05-05 05:27 35.75551 139.34649 962 ft 88 kts 346°
2026-05-05 05:28 35.76091 139.34210 1157 ft 97 kts 291°
2026-05-05 05:28 35.76194 139.33484 1426 ft 85 kts 260°
2026-05-05 05:28 35.76068 139.32856 1474 ft 74 kts 198°
2026-05-05 05:28 35.75568 139.32939 1481 ft 81 kts 168°
2026-05-05 05:29 35.74993 139.33101 1477 ft 88 kts 167°
2026-05-05 05:29 35.74365 139.33283 1483 ft 95 kts 168°
2026-05-05 05:29 35.73715 139.33494 1551 ft 97 kts 167°
2026-05-05 05:29 35.73047 139.33730 1482 ft 102 kts 163°
2026-05-05 05:30 35.72445 139.33993 1477 ft 81 kts 162°
2026-05-05 05:30 35.71942 139.34168 1333 ft 77 kts 162°
2026-05-05 05:30 35.71799 139.34755 1040 ft 92 kts 79°
2026-05-05 05:30 35.72117 139.35408 902 ft 96 kts 38°
2026-05-05 05:31 35.72790 139.35299 708 ft 104 kts 343°
2026-05-05 05:31 35.73427 139.35140 471 ft 84 kts 359°
2026-05-05 05:31 35.73910 139.35048 452 ft 60 kts 348°
2026-05-05 05:31 35.74450 139.34938 511 ft 88 kts 353°
2026-05-05 05:32 35.75090 139.34759 670 ft 97 kts 348°
2026-05-05 05:32 35.75709 139.34560 980 ft 94 kts 345°
2026-05-05 05:32 35.76208 139.34052 1269 ft 87 kts 286°
2026-05-05 05:32 35.76267 139.33329 1471 ft 81 kts 257°
2026-05-05 05:33 35.75994 139.32816 1472 ft 78 kts 175°
2026-05-05 05:33 35.75448 139.32959 1500 ft 83 kts 166°
2026-05-05 05:33 35.74872 139.33144 1515 ft 88 kts 166°
2026-05-05 05:33 35.74284 139.33343 1491 ft 90 kts 167°
2026-05-05 05:34 35.73679 139.33525 1482 ft 88 kts 167°
2026-05-05 05:34 35.73091 139.33722 1474 ft 89 kts 163°
2026-05-05 05:34 35.72554 139.33925 1476 ft 76 kts 164°
2026-05-05 05:34 35.72051 139.34086 1279 ft 71 kts 168°
2026-05-05 05:35 35.71597 139.34266 1062 ft 70 kts 156°
2026-05-05 05:35 35.71488 139.34862 903 ft 82 kts 82°
2026-05-05 05:35 35.71787 139.35432 842 ft 90 kts 16°
2026-05-05 05:35 35.72453 139.35329 706 ft 97 kts 355°
2026-05-05 05:36 35.73073 139.35214 540 ft 86 kts 357°
2026-05-05 05:36 35.73635 139.35101 450 ft 74 kts 359°
2026-05-05 05:36 35.74064 139.35016 456 ft 69 kts 351°
2026-05-05 05:36 35.74658 139.34878 520 ft 95 kts 352°
2026-05-05 05:37 35.75295 139.34673 754 ft 94 kts 347°
2026-05-05 05:37 35.75923 139.34452 1022 ft 98 kts 332°
2026-05-05 05:37 35.76307 139.33839 1352 ft 82 kts 269°
2026-05-05 05:37 35.76348 139.33125 1509 ft 83 kts 255°
2026-05-05 05:38 35.75968 139.32802 1488 ft 77 kts 168°
2026-05-05 05:38 35.75617 139.32898 1507 ft 83 kts 169°
2026-05-05 05:38 35.74837 139.33156 1488 ft 92 kts 165°
2026-05-05 05:38 35.74218 139.33376 1502 ft 93 kts 166°
2026-05-05 05:39 35.73800 139.33521 1480 ft 97 kts 165°
2026-05-05 05:39 35.73135 139.33708 1504 ft 96 kts 167°
2026-05-05 05:39 35.72545 139.33891 1517 ft 79 kts 166°
2026-05-05 05:39 35.72028 139.34033 1386 ft 76 kts 171°
2026-05-05 05:40 35.71532 139.34146 1196 ft 70 kts 169°
2026-05-05 05:40 35.71128 139.34424 1012 ft 81 kts 110°
2026-05-05 05:40 35.71239 139.35116 918 ft 86 kts 86°
2026-05-05 05:40 35.71696 139.35595 834 ft 99 kts 356°
2026-05-05 05:41 35.72348 139.35368 756 ft 91 kts 343°
2026-05-05 05:41 35.72942 139.35231 593 ft 86 kts 356°
2026-05-05 05:41 35.73539 139.35120 463 ft 87 kts 356°
2026-05-05 05:41 35.73979 139.35032 454 ft 33 kts 349°
2026-05-05 05:42 35.74136 139.34998 456 ft 22 kts 350°
2026-05-05 05:42 35.74266 139.35023 457 ft 17 kts 63°
2026-05-05 05:42 35.74277 139.35067 461 ft 0 kts 76°
2026-05-05 05:43 35.74282 139.35096 464 ft 10 kts 78°
2026-05-05 05:43 35.74313 139.35211 471 ft 14 kts 37°
2026-05-05 05:43 35.74423 139.35207 472 ft 22 kts 351°
2026-05-05 05:44 35.74591 139.35173 472 ft 24 kts 352°
2026-05-05 05:44 35.74750 139.35139 472 ft 22 kts 348°
2026-05-05 05:44 35.74897 139.35109 472 ft 23 kts 350°
2026-05-05 05:44 35.75066 139.35073 471 ft 26 kts 350°
2026-05-05 05:45 35.75214 139.35042 472 ft 16 kts 353°
2026-05-05 05:45 35.75290 139.34964 471 ft 14 kts 308°
2026-05-05 05:45 35.75342 139.34868 467 ft 12 kts 283°
2026-05-05 05:45 35.75344 139.34845 465 ft 0 kts 259°
2026-05-05 05:47 35.75341 139.34828 464 ft 10 kts 258°
2026-05-05 05:47 35.75302 139.34754 461 ft 4 kts 168°
2026-05-05 05:47 35.75301 139.34754 461 ft 0 kts 169°
2026-05-05 05:47 35.75217 139.34773 460 ft 34 kts 170°
2026-05-05 05:48 35.74869 139.34845 504 ft 60 kts 167°
2026-05-05 05:48 35.74459 139.34943 662 ft 61 kts 167°
2026-05-05 05:48 35.74009 139.35061 796 ft 69 kts 167°
2026-05-05 05:48 35.73535 139.35171 1130 ft 65 kts 162°
2026-05-05 05:49 35.73297 139.35645 1409 ft 80 kts 99°
2026-05-05 05:49 35.73498 139.36389 1483 ft 100 kts 76°
2026-05-05 05:49 35.74065 139.36981 1468 ft 121 kts
2026-05-05 05:49 35.74911 139.36820 1498 ft 120 kts 347°
2026-05-05 05:50 35.75745 139.36621 1520 ft 124 kts 348°
2026-05-05 05:50 35.76578 139.36402 1509 ft 119 kts 349°
2026-05-05 05:50 35.77357 139.36202 1492 ft 106 kts 349°
2026-05-05 05:50 35.78031 139.36040 1466 ft 91 kts 351°
2026-05-05 05:51 35.78620 139.35726 1228 ft 94 kts 291°
2026-05-05 05:51 35.78636 139.35021 1083 ft 84 kts 252°
2026-05-05 05:51 35.78355 139.34504 877 ft 72 kts 196°
2026-05-05 05:51 35.77952 139.34359 831 ft 56 kts 184°
2026-05-05 05:52 35.77574 139.34330 755 ft 55 kts 176°
2026-05-05 05:52 35.77194 139.34369 668 ft 56 kts 171°
2026-05-05 05:52 35.76824 139.34428 594 ft 52 kts 173°
2026-05-05 05:52 35.76470 139.34514 537 ft 52 kts 168°
2026-05-05 05:53 35.76089 139.34590 478 ft 49 kts 168°
2026-05-05 05:53 35.75845 139.34642 467 ft 35 kts 170°
2026-05-05 05:53 35.75488 139.34711 514 ft 65 kts 169°
2026-05-05 05:53 35.75011 139.34816 684 ft 72 kts 170°
2026-05-05 05:54 35.74521 139.34925 945 ft 69 kts 167°
2026-05-05 05:54 35.74174 139.35290 1199 ft 75 kts 113°
2026-05-05 05:54 35.74261 139.36000 1437 ft 91 kts 78°
2026-05-05 05:54 35.74501 139.36747 1471 ft 102 kts 80°
2026-05-05 05:55 35.74802 139.37563 1465 ft 116 kts 50°
2026-05-05 05:55 35.75608 139.37736 1453 ft 127 kts 352°
2026-05-05 05:55 35.76471 139.37550 1479 ft 128 kts 346°
2026-05-05 05:55 35.77348 139.37312 1496 ft 126 kts 346°
2026-05-05 05:56 35.78143 139.37088 1469 ft 109 kts 347°
2026-05-05 05:56 35.78834 139.36886 1394 ft 100 kts 348°
2026-05-05 05:56 35.79396 139.36548 1285 ft 86 kts 281°
2026-05-05 05:56 35.79432 139.35847 1184 ft 79 kts 259°
2026-05-05 05:57 35.79404 139.35178 1045 ft 77 kts 257°
2026-05-05 05:57 35.79366 139.34540 943 ft 70 kts 250°
2026-05-05 05:57 35.79049 139.34265 875 ft 60 kts 182°
2026-05-05 05:57 35.78650 139.34265 880 ft 56 kts 173°
2026-05-05 05:58 35.78267 139.34298 861 ft 55 kts 173°
2026-05-05 05:58 35.77864 139.34293 807 ft 60 kts 177°
2026-05-05 05:58 35.77461 139.34321 744 ft 52 kts 172°
2026-05-05 05:58 35.77100 139.34401 650 ft 57 kts 167°
2026-05-05 05:59 35.76688 139.34462 600 ft 62 kts 169°
2026-05-05 05:59 35.76280 139.34551 499 ft 56 kts 168°
2026-05-05 05:59 35.75977 139.34614 468 ft 22 kts 172°
2026-05-05 05:59 35.75947 139.34656 468 ft 5 kts 101°
2026-05-05 06:00 35.75939 139.34665 468 ft 0 kts 162°